sensor_id;sensor_type;location;lat;lon;timestamp;temperature;humidity
58865;DHT22;45702;52.982;6.658;2023-01-31T00:01:12;4.10;99.90
58865;DHT22;45702;52.982;6.658;2023-01-31T00:03:39;4.10;99.90
58865;DHT22;45702;52.982;6.658;2023-01-31T00:06:17;4.10;99.90
58865;DHT22;45702;52.982;6.658;2023-01-31T00:08:43;4.10;99.90
58865;DHT22;45702;52.982;6.658;2023-01-31T00:11:10;4.00;99.90
58865;DHT22;45702;52.982;6.658;2023-01-31T00:13:37;4.10;99.90
58865;DHT22;45702;52.982;6.658;2023-01-31T00:16:03;4.00;99.90
58865;DHT22;45702;52.982;6.658;2023-01-31T00:18:29;4.00;99.90
58865;DHT22;45702;52.982;6.658;2023-01-31T00:20:55;4.00;99.90
58865;DHT22;45702;52.982;6.658;2023-01-31T00:23:25;4.00;99.90
58865;DHT22;45702;52.982;6.658;2023-01-31T00:25:50;4.00;99.90
58865;DHT22;45702;52.982;6.658;2023-01-31T00:28:16;4.00;99.90
58865;DHT22;45702;52.982;6.658;2023-01-31T00:30:42;4.00;99.90
58865;DHT22;45702;52.982;6.658;2023-01-31T00:33:07;4.00;99.90
58865;DHT22;45702;52.982;6.658;2023-01-31T00:35:36;4.00;99.90
58865;DHT22;45702;52.982;6.658;2023-01-31T00:38:02;4.00;99.90
58865;DHT22;45702;52.982;6.658;2023-01-31T00:40:27;3.90;99.90
58865;DHT22;45702;52.982;6.658;2023-01-31T00:42:53;4.00;99.90
58865;DHT22;45702;52.982;6.658;2023-01-31T00:45:19;3.90;99.90
58865;DHT22;45702;52.982;6.658;2023-01-31T00:47:44;3.80;99.90
58865;DHT22;45702;52.982;6.658;2023-01-31T00:50:13;3.80;99.90
58865;DHT22;45702;52.982;6.658;2023-01-31T00:52:40;3.80;99.90
58865;DHT22;45702;52.982;6.658;2023-01-31T00:55:06;3.80;99.90
58865;DHT22;45702;52.982;6.658;2023-01-31T00:57:33;3.80;99.90
58865;DHT22;45702;52.982;6.658;2023-01-31T00:59:59;3.80;99.90
58865;DHT22;45702;52.982;6.658;2023-01-31T01:02:24;3.80;99.90
58865;DHT22;45702;52.982;6.658;2023-01-31T01:04:50;3.70;99.90
58865;DHT22;45702;52.982;6.658;2023-01-31T01:07:16;3.70;99.90
58865;DHT22;45702;52.982;6.658;2023-01-31T01:09:41;3.60;99.90
58865;DHT22;45702;52.982;6.658;2023-01-31T01:12:07;3.60;99.90
58865;DHT22;45702;52.982;6.658;2023-01-31T01:14:33;3.60;99.90
58865;DHT22;45702;52.982;6.658;2023-01-31T01:16:59;3.60;99.90
58865;DHT22;45702;52.982;6.658;2023-01-31T01:19:25;3.50;99.90
58865;DHT22;45702;52.982;6.658;2023-01-31T01:21:53;3.50;99.90
58865;DHT22;45702;52.982;6.658;2023-01-31T01:24:19;3.50;99.90
58865;DHT22;45702;52.982;6.658;2023-01-31T01:26:45;3.50;99.90
58865;DHT22;45702;52.982;6.658;2023-01-31T01:29:11;3.50;99.90
58865;DHT22;45702;52.982;6.658;2023-01-31T01:31:38;3.50;99.90
58865;DHT22;45702;52.982;6.658;2023-01-31T01:34:07;3.60;99.90
58865;DHT22;45702;52.982;6.658;2023-01-31T01:36:35;3.50;99.90
58865;DHT22;45702;52.982;6.658;2023-01-31T01:39:02;3.50;99.90
58865;DHT22;45702;52.982;6.658;2023-01-31T01:41:29;3.50;99.90
58865;DHT22;45702;52.982;6.658;2023-01-31T01:43:58;3.50;99.90
58865;DHT22;45702;52.982;6.658;2023-01-31T01:49:18;3.50;99.90
58865;DHT22;45702;52.982;6.658;2023-01-31T01:51:47;3.40;99.90
58865;DHT22;45702;52.982;6.658;2023-01-31T01:54:18;3.50;99.90
58865;DHT22;45702;52.982;6.658;2023-01-31T01:56:46;3.50;99.90
58865;DHT22;45702;52.982;6.658;2023-01-31T01:59:57;3.40;99.90
58865;DHT22;45702;52.982;6.658;2023-01-31T02:02:03;3.40;99.90
58865;DHT22;45702;52.982;6.658;2023-01-31T02:04:33;3.40;99.90
58865;DHT22;45702;52.982;6.658;2023-01-31T02:07:00;3.30;99.90
58865;DHT22;45702;52.982;6.658;2023-01-31T02:09:44;3.30;99.90
58865;DHT22;45702;52.982;6.658;2023-01-31T02:12:12;3.30;99.90
58865;DHT22;45702;52.982;6.658;2023-01-31T02:14:38;3.30;99.90
58865;DHT22;45702;52.982;6.658;2023-01-31T02:17:04;3.30;99.90
58865;DHT22;45702;52.982;6.658;2023-01-31T02:19:59;3.30;99.90
58865;DHT22;45702;52.982;6.658;2023-01-31T02:36:22;3.40;99.90
58865;DHT22;45702;52.982;6.658;2023-01-31T02:39:17;3.30;99.90
58865;DHT22;45702;52.982;6.658;2023-01-31T02:44:36;3.40;99.90
58865;DHT22;45702;52.982;6.658;2023-01-31T02:50:30;3.40;99.90
58865;DHT22;45702;52.982;6.658;2023-01-31T02:53:03;3.50;99.90
58865;DHT22;45702;52.982;6.658;2023-01-31T02:58:26;3.60;99.90
58865;DHT22;45702;52.982;6.658;2023-01-31T03:00:56;3.60;99.90
58865;DHT22;45702;52.982;6.658;2023-01-31T03:03:28;3.60;99.90
58865;DHT22;45702;52.982;6.658;2023-01-31T03:08:51;3.70;99.90
58865;DHT22;45702;52.982;6.658;2023-01-31T03:11:18;3.70;99.90
58865;DHT22;45702;52.982;6.658;2023-01-31T03:16:28;3.80;99.90
58865;DHT22;45702;52.982;6.658;2023-01-31T03:19:26;3.80;99.90
58865;DHT22;45702;52.982;6.658;2023-01-31T03:22:07;3.90;99.90
58865;DHT22;45702;52.982;6.658;2023-01-31T03:24:35;3.90;99.90
58865;DHT22;45702;52.982;6.658;2023-01-31T03:27:02;3.90;99.90
58865;DHT22;45702;52.982;6.658;2023-01-31T03:29:31;3.80;99.90
58865;DHT22;45702;52.982;6.658;2023-01-31T03:32:04;3.90;99.90
58865;DHT22;45702;52.982;6.658;2023-01-31T03:34:31;4.00;99.90
58865;DHT22;45702;52.982;6.658;2023-01-31T03:37:03;4.00;99.90
58865;DHT22;45702;52.982;6.658;2023-01-31T03:39:41;4.00;99.90
58865;DHT22;45702;52.982;6.658;2023-01-31T03:45:56;4.00;99.90
58865;DHT22;45702;52.982;6.658;2023-01-31T03:48:02;4.00;99.90
58865;DHT22;45702;52.982;6.658;2023-01-31T03:50:38;4.10;99.90
58865;DHT22;45702;52.982;6.658;2023-01-31T03:53:06;4.10;99.90
58865;DHT22;45702;52.982;6.658;2023-01-31T03:58:02;4.20;99.90
58865;DHT22;45702;52.982;6.658;2023-01-31T04:00:29;4.20;99.90
58865;DHT22;45702;52.982;6.658;2023-01-31T04:03:01;4.20;99.90
58865;DHT22;45702;52.982;6.658;2023-01-31T04:05:28;4.30;99.90
58865;DHT22;45702;52.982;6.658;2023-01-31T04:07:57;4.30;99.90
58865;DHT22;45702;52.982;6.658;2023-01-31T04:10:24;4.30;99.90
58865;DHT22;45702;52.982;6.658;2023-01-31T04:12:51;4.40;99.90
58865;DHT22;45702;52.982;6.658;2023-01-31T04:15:17;4.40;99.90
58865;DHT22;45702;52.982;6.658;2023-01-31T04:17:43;4.50;99.90
58865;DHT22;45702;52.982;6.658;2023-01-31T04:20:09;4.50;99.90
58865;DHT22;45702;52.982;6.658;2023-01-31T04:22:35;4.50;99.90
58865;DHT22;45702;52.982;6.658;2023-01-31T04:25:01;4.50;99.90
58865;DHT22;45702;52.982;6.658;2023-01-31T04:27:27;4.60;99.90
58865;DHT22;45702;52.982;6.658;2023-01-31T04:29:52;4.60;99.90
58865;DHT22;45702;52.982;6.658;2023-01-31T04:32:18;4.60;99.90
58865;DHT22;45702;52.982;6.658;2023-01-31T04:34:43;4.60;99.90
58865;DHT22;45702;52.982;6.658;2023-01-31T04:37:09;4.60;99.90
58865;DHT22;45702;52.982;6.658;2023-01-31T04:39:35;4.60;99.90
58865;DHT22;45702;52.982;6.658;2023-01-31T04:42:00;4.70;99.90
58865;DHT22;45702;52.982;6.658;2023-01-31T04:44:26;4.80;99.90
58865;DHT22;45702;52.982;6.658;2023-01-31T04:46:53;4.70;99.90
58865;DHT22;45702;52.982;6.658;2023-01-31T04:49:18;4.80;99.90
58865;DHT22;45702;52.982;6.658;2023-01-31T04:51:44;4.80;99.90
58865;DHT22;45702;52.982;6.658;2023-01-31T04:54:10;4.80;99.90
58865;DHT22;45702;52.982;6.658;2023-01-31T04:56:35;4.90;99.90
58865;DHT22;45702;52.982;6.658;2023-01-31T04:59:01;4.90;99.90
58865;DHT22;45702;52.982;6.658;2023-01-31T05:01:27;4.90;99.90
58865;DHT22;45702;52.982;6.658;2023-01-31T05:03:53;4.90;99.90
58865;DHT22;45702;52.982;6.658;2023-01-31T05:06:19;4.90;99.90
58865;DHT22;45702;52.982;6.658;2023-01-31T05:08:45;4.90;99.90
58865;DHT22;45702;52.982;6.658;2023-01-31T05:11:10;4.90;99.90
58865;DHT22;45702;52.982;6.658;2023-01-31T05:13:36;5.00;99.90
58865;DHT22;45702;52.982;6.658;2023-01-31T05:16:10;4.90;99.90
58865;DHT22;45702;52.982;6.658;2023-01-31T05:18:36;5.00;99.90
58865;DHT22;45702;52.982;6.658;2023-01-31T05:21:02;5.00;99.90
58865;DHT22;45702;52.982;6.658;2023-01-31T05:23:29;4.90;99.90
58865;DHT22;45702;52.982;6.658;2023-01-31T05:25:56;5.00;99.90
58865;DHT22;45702;52.982;6.658;2023-01-31T05:28:22;5.00;99.90
58865;DHT22;45702;52.982;6.658;2023-01-31T05:30:53;5.00;99.90
58865;DHT22;45702;52.982;6.658;2023-01-31T05:33:19;5.10;99.90
58865;DHT22;45702;52.982;6.658;2023-01-31T05:35:48;5.10;99.90
58865;DHT22;45702;52.982;6.658;2023-01-31T05:38:14;5.10;99.90
58865;DHT22;45702;52.982;6.658;2023-01-31T05:40:40;5.10;99.90
58865;DHT22;45702;52.982;6.658;2023-01-31T05:43:06;5.10;99.90
58865;DHT22;45702;52.982;6.658;2023-01-31T05:45:32;5.10;99.90
58865;DHT22;45702;52.982;6.658;2023-01-31T05:47:58;5.20;99.90
58865;DHT22;45702;52.982;6.658;2023-01-31T05:50:24;5.20;99.90
58865;DHT22;45702;52.982;6.658;2023-01-31T05:52:54;5.20;99.90
58865;DHT22;45702;52.982;6.658;2023-01-31T05:55:21;5.20;99.90
58865;DHT22;45702;52.982;6.658;2023-01-31T05:57:47;5.20;99.90
58865;DHT22;45702;52.982;6.658;2023-01-31T06:00:13;5.20;99.90
58865;DHT22;45702;52.982;6.658;2023-01-31T06:02:41;5.20;99.90
58865;DHT22;45702;52.982;6.658;2023-01-31T06:05:07;5.20;99.90
58865;DHT22;45702;52.982;6.658;2023-01-31T06:07:33;5.20;99.90
58865;DHT22;45702;52.982;6.658;2023-01-31T06:09:59;5.30;99.90
58865;DHT22;45702;52.982;6.658;2023-01-31T06:12:25;5.20;99.90
58865;DHT22;45702;52.982;6.658;2023-01-31T06:14:50;5.20;99.90
58865;DHT22;45702;52.982;6.658;2023-01-31T06:17:16;5.30;99.90
58865;DHT22;45702;52.982;6.658;2023-01-31T06:19:42;5.30;99.90
58865;DHT22;45702;52.982;6.658;2023-01-31T06:22:08;5.30;99.90
58865;DHT22;45702;52.982;6.658;2023-01-31T06:24:34;5.30;99.90
58865;DHT22;45702;52.982;6.658;2023-01-31T06:27:00;5.30;99.90
58865;DHT22;45702;52.982;6.658;2023-01-31T06:29:25;5.20;99.90
58865;DHT22;45702;52.982;6.658;2023-01-31T06:31:51;5.30;99.90
58865;DHT22;45702;52.982;6.658;2023-01-31T06:34:18;5.30;99.90
58865;DHT22;45702;52.982;6.658;2023-01-31T06:36:44;5.40;99.90
58865;DHT22;45702;52.982;6.658;2023-01-31T06:39:12;5.40;99.90
58865;DHT22;45702;52.982;6.658;2023-01-31T06:41:38;5.40;99.90
58865;DHT22;45702;52.982;6.658;2023-01-31T06:44:04;5.40;99.90
58865;DHT22;45702;52.982;6.658;2023-01-31T06:46:30;5.40;99.90
58865;DHT22;45702;52.982;6.658;2023-01-31T06:48:56;5.40;99.90
58865;DHT22;45702;52.982;6.658;2023-01-31T06:51:21;5.50;99.90
58865;DHT22;45702;52.982;6.658;2023-01-31T06:53:47;5.50;99.90
58865;DHT22;45702;52.982;6.658;2023-01-31T06:56:13;5.50;99.90
58865;DHT22;45702;52.982;6.658;2023-01-31T06:58:38;5.50;99.90
58865;DHT22;45702;52.982;6.658;2023-01-31T07:01:06;5.50;99.90
58865;DHT22;45702;52.982;6.658;2023-01-31T07:03:32;5.60;99.90
58865;DHT22;45702;52.982;6.658;2023-01-31T07:05:58;5.60;99.90
58865;DHT22;45702;52.982;6.658;2023-01-31T07:08:23;5.60;99.90
58865;DHT22;45702;52.982;6.658;2023-01-31T07:10:49;5.70;99.90
58865;DHT22;45702;52.982;6.658;2023-01-31T07:13:15;5.70;99.90
58865;DHT22;45702;52.982;6.658;2023-01-31T07:15:41;5.80;99.90
58865;DHT22;45702;52.982;6.658;2023-01-31T07:18:07;5.80;99.90
58865;DHT22;45702;52.982;6.658;2023-01-31T07:20:33;5.80;99.90
58865;DHT22;45702;52.982;6.658;2023-01-31T07:22:59;5.80;99.90
58865;DHT22;45702;52.982;6.658;2023-01-31T07:25:26;5.90;99.90
58865;DHT22;45702;52.982;6.658;2023-01-31T07:27:51;5.90;99.90
58865;DHT22;45702;52.982;6.658;2023-01-31T07:30:18;5.80;99.90
58865;DHT22;45702;52.982;6.658;2023-01-31T07:32:44;5.90;99.90
58865;DHT22;45702;52.982;6.658;2023-01-31T07:35:09;6.00;99.90
58865;DHT22;45702;52.982;6.658;2023-01-31T07:37:35;6.10;99.90
58865;DHT22;45702;52.982;6.658;2023-01-31T07:40:01;6.00;99.90
58865;DHT22;45702;52.982;6.658;2023-01-31T07:42:27;6.10;99.90
58865;DHT22;45702;52.982;6.658;2023-01-31T07:44:53;6.10;99.90
58865;DHT22;45702;52.982;6.658;2023-01-31T07:47:19;6.10;99.90
58865;DHT22;45702;52.982;6.658;2023-01-31T07:49:45;6.10;99.90
58865;DHT22;45702;52.982;6.658;2023-01-31T07:52:10;6.10;99.90
58865;DHT22;45702;52.982;6.658;2023-01-31T07:54:36;6.10;99.90
58865;DHT22;45702;52.982;6.658;2023-01-31T07:57:02;6.10;99.90
58865;DHT22;45702;52.982;6.658;2023-01-31T07:59:27;6.20;99.90
58865;DHT22;45702;52.982;6.658;2023-01-31T08:01:53;6.20;99.90
58865;DHT22;45702;52.982;6.658;2023-01-31T08:04:37;6.20;99.90
58865;DHT22;45702;52.982;6.658;2023-01-31T08:07:03;6.20;99.90
58865;DHT22;45702;52.982;6.658;2023-01-31T08:09:31;6.30;99.90
58865;DHT22;45702;52.982;6.658;2023-01-31T08:11:57;6.20;99.90
58865;DHT22;45702;52.982;6.658;2023-01-31T08:14:23;6.30;99.90
58865;DHT22;45702;52.982;6.658;2023-01-31T08:16:53;6.30;99.90
58865;DHT22;45702;52.982;6.658;2023-01-31T08:19:20;6.30;99.90
58865;DHT22;45702;52.982;6.658;2023-01-31T08:21:46;6.40;99.90
58865;DHT22;45702;52.982;6.658;2023-01-31T08:24:12;6.40;99.90
58865;DHT22;45702;52.982;6.658;2023-01-31T08:26:38;6.50;99.90
58865;DHT22;45702;52.982;6.658;2023-01-31T08:29:04;6.50;99.90
58865;DHT22;45702;52.982;6.658;2023-01-31T08:31:29;6.50;99.90
58865;DHT22;45702;52.982;6.658;2023-01-31T08:33:55;6.50;99.90
58865;DHT22;45702;52.982;6.658;2023-01-31T08:36:27;6.50;99.90
58865;DHT22;45702;52.982;6.658;2023-01-31T08:38:54;6.60;99.90
58865;DHT22;45702;52.982;6.658;2023-01-31T08:41:21;6.60;99.90
58865;DHT22;45702;52.982;6.658;2023-01-31T08:43:47;6.60;99.90
58865;DHT22;45702;52.982;6.658;2023-01-31T08:46:16;6.60;99.90
58865;DHT22;45702;52.982;6.658;2023-01-31T08:48:41;6.70;99.90
58865;DHT22;45702;52.982;6.658;2023-01-31T08:51:11;6.60;99.90
58865;DHT22;45702;52.982;6.658;2023-01-31T08:53:38;6.70;99.90
58865;DHT22;45702;52.982;6.658;2023-01-31T08:56:05;6.70;99.90
58865;DHT22;45702;52.982;6.658;2023-01-31T08:58:33;6.70;99.90
58865;DHT22;45702;52.982;6.658;2023-01-31T09:01:03;6.70;99.90
58865;DHT22;45702;52.982;6.658;2023-01-31T09:03:29;6.70;99.90
58865;DHT22;45702;52.982;6.658;2023-01-31T09:06:01;6.70;99.90
58865;DHT22;45702;52.982;6.658;2023-01-31T09:08:28;6.70;99.90
58865;DHT22;45702;52.982;6.658;2023-01-31T09:10:55;6.70;99.90
58865;DHT22;45702;52.982;6.658;2023-01-31T09:13:21;6.70;99.90
58865;DHT22;45702;52.982;6.658;2023-01-31T09:16:06;6.80;99.90
58865;DHT22;45702;52.982;6.658;2023-01-31T09:18:33;6.90;99.90
58865;DHT22;45702;52.982;6.658;2023-01-31T09:21:06;6.90;99.90
58865;DHT22;45702;52.982;6.658;2023-01-31T09:23:33;6.90;99.90
58865;DHT22;45702;52.982;6.658;2023-01-31T09:25:59;6.90;99.90
58865;DHT22;45702;52.982;6.658;2023-01-31T09:28:25;6.90;99.90
58865;DHT22;45702;52.982;6.658;2023-01-31T09:30:50;7.00;99.90
58865;DHT22;45702;52.982;6.658;2023-01-31T09:33:20;7.00;99.90
58865;DHT22;45702;52.982;6.658;2023-01-31T09:35:57;7.00;99.90
58865;DHT22;45702;52.982;6.658;2023-01-31T09:38:23;7.00;99.90
58865;DHT22;45702;52.982;6.658;2023-01-31T09:40:50;7.00;99.90
58865;DHT22;45702;52.982;6.658;2023-01-31T09:43:18;7.10;99.90
58865;DHT22;45702;52.982;6.658;2023-01-31T09:45:45;7.10;99.90
58865;DHT22;45702;52.982;6.658;2023-01-31T09:48:19;7.10;99.90
58865;DHT22;45702;52.982;6.658;2023-01-31T09:50:50;7.10;99.90
58865;DHT22;45702;52.982;6.658;2023-01-31T09:53:20;7.10;99.90
58865;DHT22;45702;52.982;6.658;2023-01-31T10:01:13;7.20;99.90
58865;DHT22;45702;52.982;6.658;2023-01-31T10:04:14;7.30;99.90
58865;DHT22;45702;52.982;6.658;2023-01-31T10:07:02;7.20;99.90
58865;DHT22;45702;52.982;6.658;2023-01-31T10:09:33;7.30;99.90
58865;DHT22;45702;52.982;6.658;2023-01-31T10:12:13;7.20;99.90
58865;DHT22;45702;52.982;6.658;2023-01-31T10:14:55;7.30;99.90
58865;DHT22;45702;52.982;6.658;2023-01-31T10:22:49;7.30;99.90
58865;DHT22;45702;52.982;6.658;2023-01-31T10:25:26;7.30;99.90
58865;DHT22;45702;52.982;6.658;2023-01-31T10:28:03;7.30;99.90
58865;DHT22;45702;52.982;6.658;2023-01-31T10:30:47;7.30;99.90
58865;DHT22;45702;52.982;6.658;2023-01-31T10:33:33;7.40;99.90
58865;DHT22;45702;52.982;6.658;2023-01-31T10:36:02;7.40;99.90
58865;DHT22;45702;52.982;6.658;2023-01-31T10:38:33;7.40;99.90
58865;DHT22;45702;52.982;6.658;2023-01-31T10:41:13;7.40;99.90
58865;DHT22;45702;52.982;6.658;2023-01-31T10:43:58;7.40;99.90
58865;DHT22;45702;52.982;6.658;2023-01-31T10:46:26;7.30;99.90
58865;DHT22;45702;52.982;6.658;2023-01-31T10:48:52;7.30;99.90
58865;DHT22;45702;52.982;6.658;2023-01-31T10:51:36;7.30;99.90
58865;DHT22;45702;52.982;6.658;2023-01-31T10:54:18;7.20;99.90
58865;DHT22;45702;52.982;6.658;2023-01-31T10:56:47;7.10;99.90
58865;DHT22;45702;52.982;6.658;2023-01-31T10:59:32;7.10;99.90
58865;DHT22;45702;52.982;6.658;2023-01-31T11:02:00;7.10;99.90
58865;DHT22;45702;52.982;6.658;2023-01-31T11:04:31;7.10;99.90
58865;DHT22;45702;52.982;6.658;2023-01-31T11:06:59;7.00;99.90
58865;DHT22;45702;52.982;6.658;2023-01-31T11:09:29;7.00;99.90
58865;DHT22;45702;52.982;6.658;2023-01-31T11:12:00;6.90;99.90
58865;DHT22;45702;52.982;6.658;2023-01-31T11:14:26;7.00;99.90
58865;DHT22;45702;52.982;6.658;2023-01-31T11:17:06;7.00;99.90
58865;DHT22;45702;52.982;6.658;2023-01-31T11:22:03;7.00;99.90
58865;DHT22;45702;52.982;6.658;2023-01-31T11:24:32;7.00;99.90
58865;DHT22;45702;52.982;6.658;2023-01-31T11:27:21;7.10;99.90
58865;DHT22;45702;52.982;6.658;2023-01-31T11:29:49;7.10;99.90
58865;DHT22;45702;52.982;6.658;2023-01-31T11:32:21;7.10;99.90
58865;DHT22;45702;52.982;6.658;2023-01-31T11:35:05;7.20;99.90
58865;DHT22;45702;52.982;6.658;2023-01-31T11:37:32;7.10;99.90
58865;DHT22;45702;52.982;6.658;2023-01-31T11:40:00;7.10;99.90
58865;DHT22;45702;52.982;6.658;2023-01-31T11:42:26;7.20;99.90
58865;DHT22;45702;52.982;6.658;2023-01-31T11:45:15;7.20;99.90
58865;DHT22;45702;52.982;6.658;2023-01-31T11:47:48;7.10;99.90
58865;DHT22;45702;52.982;6.658;2023-01-31T11:50:21;7.20;99.90
58865;DHT22;45702;52.982;6.658;2023-01-31T11:53:03;7.10;99.90
58865;DHT22;45702;52.982;6.658;2023-01-31T11:55:36;7.10;99.90
58865;DHT22;45702;52.982;6.658;2023-01-31T11:58:08;7.10;99.90
58865;DHT22;45702;52.982;6.658;2023-01-31T12:00:57;7.10;99.90
58865;DHT22;45702;52.982;6.658;2023-01-31T12:03:24;7.10;99.90
58865;DHT22;45702;52.982;6.658;2023-01-31T12:05:58;7.10;99.90
58865;DHT22;45702;52.982;6.658;2023-01-31T12:08:33;7.10;99.90
58865;DHT22;45702;52.982;6.658;2023-01-31T12:11:05;7.20;99.90
58865;DHT22;45702;52.982;6.658;2023-01-31T12:13:31;7.20;99.90
58865;DHT22;45702;52.982;6.658;2023-01-31T12:16:10;7.30;99.90
58865;DHT22;45702;52.982;6.658;2023-01-31T12:21:55;7.40;99.90
58865;DHT22;45702;52.982;6.658;2023-01-31T12:32:52;7.60;99.90
58865;DHT22;45702;52.982;6.658;2023-01-31T12:51:09;8.10;99.90
58865;DHT22;45702;52.982;6.658;2023-01-31T12:59:44;8.30;99.90
58865;DHT22;45702;52.982;6.658;2023-01-31T13:05:00;8.50;99.90
58865;DHT22;45702;52.982;6.658;2023-01-31T13:10:37;8.50;99.90
58865;DHT22;45702;52.982;6.658;2023-01-31T13:13:09;8.60;99.90
58865;DHT22;45702;52.982;6.658;2023-01-31T13:15:46;8.70;99.90
58865;DHT22;45702;52.982;6.658;2023-01-31T13:18:13;8.70;99.90
58865;DHT22;45702;52.982;6.658;2023-01-31T13:20:46;8.80;99.90
58865;DHT22;45702;52.982;6.658;2023-01-31T13:23:30;8.80;99.90
58865;DHT22;45702;52.982;6.658;2023-01-31T13:28:47;8.80;99.90
58865;DHT22;45702;52.982;6.658;2023-01-31T13:31:27;8.80;99.90
58865;DHT22;45702;52.982;6.658;2023-01-31T13:36:41;8.90;99.90
58865;DHT22;45702;52.982;6.658;2023-01-31T13:39:22;8.90;99.90
58865;DHT22;45702;52.982;6.658;2023-01-31T13:41:49;9.00;99.90
58865;DHT22;45702;52.982;6.658;2023-01-31T13:44:17;9.00;99.90
58865;DHT22;45702;52.982;6.658;2023-01-31T13:47:23;9.00;99.90
58865;DHT22;45702;52.982;6.658;2023-01-31T13:52:24;9.00;99.90
58865;DHT22;45702;52.982;6.658;2023-01-31T13:55:02;9.00;99.90
58865;DHT22;45702;52.982;6.658;2023-01-31T13:57:44;9.00;99.90
58865;DHT22;45702;52.982;6.658;2023-01-31T14:00:43;9.00;99.90
58865;DHT22;45702;52.982;6.658;2023-01-31T14:03:17;9.00;99.90
58865;DHT22;45702;52.982;6.658;2023-01-31T14:05:54;8.90;99.90
58865;DHT22;45702;52.982;6.658;2023-01-31T14:14:09;8.90;99.90
58865;DHT22;45702;52.982;6.658;2023-01-31T14:16:44;8.90;99.90
58865;DHT22;45702;52.982;6.658;2023-01-31T14:22:03;8.90;99.90
58865;DHT22;45702;52.982;6.658;2023-01-31T14:41:12;8.90;99.90
58865;DHT22;45702;52.982;6.658;2023-01-31T14:47:06;9.00;99.90
58865;DHT22;45702;52.982;6.658;2023-01-31T14:56:03;8.90;99.90
58865;DHT22;45702;52.982;6.658;2023-01-31T14:58:45;8.90;99.90
58865;DHT22;45702;52.982;6.658;2023-01-31T15:01:16;8.90;99.90
58865;DHT22;45702;52.982;6.658;2023-01-31T15:03:56;8.90;99.90
58865;DHT22;45702;52.982;6.658;2023-01-31T15:06:27;8.80;99.90
58865;DHT22;45702;52.982;6.658;2023-01-31T15:11:53;8.80;99.90
58865;DHT22;45702;52.982;6.658;2023-01-31T15:14:39;8.80;99.90
58865;DHT22;45702;52.982;6.658;2023-01-31T15:17:16;8.80;99.90
58865;DHT22;45702;52.982;6.658;2023-01-31T15:22:44;8.80;99.90
58865;DHT22;45702;52.982;6.658;2023-01-31T15:25:41;8.70;99.90
58865;DHT22;45702;52.982;6.658;2023-01-31T15:28:28;8.70;99.90
58865;DHT22;45702;52.982;6.658;2023-01-31T15:31:22;8.70;99.90
58865;DHT22;45702;52.982;6.658;2023-01-31T15:33:57;8.70;99.90
58865;DHT22;45702;52.982;6.658;2023-01-31T15:36:43;8.60;99.90
58865;DHT22;45702;52.982;6.658;2023-01-31T15:39:33;8.60;99.90
58865;DHT22;45702;52.982;6.658;2023-01-31T15:42:26;8.60;99.90
58865;DHT22;45702;52.982;6.658;2023-01-31T15:45:17;8.60;99.90
58865;DHT22;45702;52.982;6.658;2023-01-31T15:48:11;8.60;99.90
58865;DHT22;45702;52.982;6.658;2023-01-31T15:50:50;8.50;99.90
58865;DHT22;45702;52.982;6.658;2023-01-31T15:53:25;8.60;99.90
58865;DHT22;45702;52.982;6.658;2023-01-31T15:55:56;8.50;99.90
58865;DHT22;45702;52.982;6.658;2023-01-31T15:58:27;8.40;99.90
58865;DHT22;45702;52.982;6.658;2023-01-31T16:00:59;8.40;99.90
58865;DHT22;45702;52.982;6.658;2023-01-31T16:03:40;8.40;99.90
58865;DHT22;45702;52.982;6.658;2023-01-31T16:06:26;8.40;99.90
58865;DHT22;45702;52.982;6.658;2023-01-31T16:08:59;8.30;99.90
58865;DHT22;45702;52.982;6.658;2023-01-31T16:11:33;8.30;99.90
58865;DHT22;45702;52.982;6.658;2023-01-31T16:14:02;8.20;99.90
58865;DHT22;45702;52.982;6.658;2023-01-31T16:16:30;8.10;99.90
58865;DHT22;45702;52.982;6.658;2023-01-31T16:19:03;8.10;99.90
58865;DHT22;45702;52.982;6.658;2023-01-31T16:21:37;8.10;99.90
58865;DHT22;45702;52.982;6.658;2023-01-31T16:24:14;8.00;99.90
58865;DHT22;45702;52.982;6.658;2023-01-31T16:27:04;7.90;99.90
58865;DHT22;45702;52.982;6.658;2023-01-31T16:29:41;7.80;99.90
58865;DHT22;45702;52.982;6.658;2023-01-31T16:34:43;7.70;99.90
58865;DHT22;45702;52.982;6.658;2023-01-31T16:37:32;7.70;99.90
58865;DHT22;45702;52.982;6.658;2023-01-31T16:40:26;7.60;99.90
58865;DHT22;45702;52.982;6.658;2023-01-31T16:43:17;7.50;99.60
58865;DHT22;45702;52.982;6.658;2023-01-31T16:45:58;7.50;99.80
58865;DHT22;45702;52.982;6.658;2023-01-31T16:48:32;7.40;99.90
58865;DHT22;45702;52.982;6.658;2023-01-31T16:54:23;7.30;99.90
58865;DHT22;45702;52.982;6.658;2023-01-31T16:57:06;7.30;99.90
58865;DHT22;45702;52.982;6.658;2023-01-31T16:59:39;7.20;99.90
58865;DHT22;45702;52.982;6.658;2023-01-31T17:02:24;7.20;99.90
58865;DHT22;45702;52.982;6.658;2023-01-31T17:05:00;7.20;99.90
58865;DHT22;45702;52.982;6.658;2023-01-31T17:07:30;7.10;99.90
58865;DHT22;45702;52.982;6.658;2023-01-31T17:10:05;7.10;99.90
58865;DHT22;45702;52.982;6.658;2023-01-31T17:12:35;7.10;99.90
58865;DHT22;45702;52.982;6.658;2023-01-31T17:15:23;7.10;99.90
58865;DHT22;45702;52.982;6.658;2023-01-31T17:17:54;7.00;99.90
58865;DHT22;45702;52.982;6.658;2023-01-31T17:20:23;7.00;99.90
58865;DHT22;45702;52.982;6.658;2023-01-31T17:22:49;7.00;99.90
58865;DHT22;45702;52.982;6.658;2023-01-31T17:28:10;7.00;99.90
58865;DHT22;45702;52.982;6.658;2023-01-31T17:30:40;7.00;99.90
58865;DHT22;45702;52.982;6.658;2023-01-31T17:33:12;7.00;99.70
58865;DHT22;45702;52.982;6.658;2023-01-31T17:35:41;7.00;99.90
58865;DHT22;45702;52.982;6.658;2023-01-31T17:38:07;6.90;99.60
58865;DHT22;45702;52.982;6.658;2023-01-31T17:40:45;6.90;99.50
58865;DHT22;45702;52.982;6.658;2023-01-31T17:43:20;6.80;99.50
58865;DHT22;45702;52.982;6.658;2023-01-31T17:45:54;6.80;99.30
58865;DHT22;45702;52.982;6.658;2023-01-31T17:48:22;6.80;99.10
58865;DHT22;45702;52.982;6.658;2023-01-31T17:50:50;6.80;99.20
58865;DHT22;45702;52.982;6.658;2023-01-31T17:53:16;6.70;99.10
58865;DHT22;45702;52.982;6.658;2023-01-31T17:55:42;6.60;98.80
58865;DHT22;45702;52.982;6.658;2023-01-31T17:58:14;6.70;98.80
58865;DHT22;45702;52.982;6.658;2023-01-31T18:00:45;6.70;97.90
58865;DHT22;45702;52.982;6.658;2023-01-31T18:03:17;6.70;98.10
58865;DHT22;45702;52.982;6.658;2023-01-31T18:05:53;6.70;98.00
58865;DHT22;45702;52.982;6.658;2023-01-31T18:08:21;6.70;98.00
58865;DHT22;45702;52.982;6.658;2023-01-31T18:10:48;6.60;97.80
58865;DHT22;45702;52.982;6.658;2023-01-31T18:13:19;6.60;97.60
58865;DHT22;45702;52.982;6.658;2023-01-31T18:16:03;6.60;97.50
58865;DHT22;45702;52.982;6.658;2023-01-31T18:18:29;6.70;97.20
58865;DHT22;45702;52.982;6.658;2023-01-31T18:21:00;6.70;97.20
58865;DHT22;45702;52.982;6.658;2023-01-31T18:23:32;6.60;97.20
58865;DHT22;45702;52.982;6.658;2023-01-31T18:26:05;6.70;97.10
58865;DHT22;45702;52.982;6.658;2023-01-31T18:28:34;6.60;96.90
58865;DHT22;45702;52.982;6.658;2023-01-31T18:31:01;6.70;97.00
58865;DHT22;45702;52.982;6.658;2023-01-31T18:33:28;6.70;96.90
58865;DHT22;45702;52.982;6.658;2023-01-31T18:35:58;6.70;96.80